sensor_id;sensor_type;location;lat;lon;timestamp;temperature;humidity
752;DHT22;360;48.764;9.164;2023-03-04T07:44:44;8.30;28.50
752;DHT22;360;48.764;9.164;2023-03-04T07:47:10;2.60;1.00
752;DHT22;360;48.764;9.164;2023-03-04T07:49:37;2.60;99.90
752;DHT22;360;48.764;9.164;2023-03-04T07:52:05;2.50;1.00
752;DHT22;360;48.764;9.164;2023-03-04T07:54:33;2.40;99.90
752;DHT22;360;48.764;9.164;2023-03-04T07:57:00;2.60;99.90
752;DHT22;360;48.764;9.164;2023-03-04T07:59:29;2.20;1.00
752;DHT22;360;48.764;9.164;2023-03-04T08:01:56;2.10;1.00
752;DHT22;360;48.764;9.164;2023-03-04T08:04:23;2.10;99.90
752;DHT22;360;48.764;9.164;2023-03-04T08:06:49;2.00;99.90
752;DHT22;360;48.764;9.164;2023-03-04T08:09:16;2.20;99.90
752;DHT22;360;48.764;9.164;2023-03-04T08:11:44;2.40;99.90
752;DHT22;360;48.764;9.164;2023-03-04T08:14:12;2.10;99.90
752;DHT22;360;48.764;9.164;2023-03-04T08:16:39;2.20;1.00
752;DHT22;360;48.764;9.164;2023-03-04T08:19:06;2.20;1.00
752;DHT22;360;48.764;9.164;2023-03-04T08:21:33;1.90;1.00
752;DHT22;360;48.764;9.164;2023-03-04T08:24:01;2.00;99.90
752;DHT22;360;48.764;9.164;2023-03-04T08:26:34;2.40;1.00
752;DHT22;360;48.764;9.164;2023-03-04T08:29:04;2.60;99.90
752;DHT22;360;48.764;9.164;2023-03-04T08:31:32;2.60;7.90
752;DHT22;360;48.764;9.164;2023-03-04T08:33:59;2.70;99.50
752;DHT22;360;48.764;9.164;2023-03-04T08:36:25;2.80;99.90
752;DHT22;360;48.764;9.164;2023-03-04T08:38:52;2.80;99.90
752;DHT22;360;48.764;9.164;2023-03-04T08:41:19;2.80;11.50
752;DHT22;360;48.764;9.164;2023-03-04T08:43:47;2.70;33.30
752;DHT22;360;48.764;9.164;2023-03-04T08:46:15;2.80;99.90
752;DHT22;360;48.764;9.164;2023-03-04T08:48:42;2.90;12.90
752;DHT22;360;48.764;9.164;2023-03-04T08:51:10;2.90;1.00
752;DHT22;360;48.764;9.164;2023-03-04T08:53:38;2.90;99.90
752;DHT22;360;48.764;9.164;2023-03-04T08:56:06;3.00;1.00
752;DHT22;360;48.764;9.164;2023-03-04T08:58:33;2.90;99.90
752;DHT22;360;48.764;9.164;2023-03-04T09:01:01;2.90;99.90
752;DHT22;360;48.764;9.164;2023-03-04T09:03:30;3.00;1.00
752;DHT22;360;48.764;9.164;2023-03-04T09:05:57;3.10;1.00
752;DHT22;360;48.764;9.164;2023-03-04T09:08:24;3.00;1.00
752;DHT22;360;48.764;9.164;2023-03-04T09:10:52;3.10;99.90
752;DHT22;360;48.764;9.164;2023-03-04T09:13:18;3.00;99.90
752;DHT22;360;48.764;9.164;2023-03-04T09:15:46;3.00;99.90
752;DHT22;360;48.764;9.164;2023-03-04T09:18:13;3.10;99.90
752;DHT22;360;48.764;9.164;2023-03-04T09:20:42;3.20;1.00
752;DHT22;360;48.764;9.164;2023-03-04T09:23:09;3.10;99.90
752;DHT22;360;48.764;9.164;2023-03-04T09:25:37;3.20;1.00
752;DHT22;360;48.764;9.164;2023-03-04T09:28:05;3.20;1.00
752;DHT22;360;48.764;9.164;2023-03-04T09:30:32;3.20;1.00
752;DHT22;360;48.764;9.164;2023-03-04T09:32:59;3.10;27.20
752;DHT22;360;48.764;9.164;2023-03-04T09:35:26;3.10;1.00
752;DHT22;360;48.764;9.164;2023-03-04T09:37:56;3.10;1.00
752;DHT22;360;48.764;9.164;2023-03-04T09:40:26;3.20;1.00
752;DHT22;360;48.764;9.164;2023-03-04T09:42:58;3.20;1.00
752;DHT22;360;48.764;9.164;2023-03-04T09:45:34;3.20;1.00
752;DHT22;360;48.764;9.164;2023-03-04T09:48:02;3.20;1.00
752;DHT22;360;48.764;9.164;2023-03-04T09:50:32;3.30;1.00
752;DHT22;360;48.764;9.164;2023-03-04T09:53:06;3.30;1.00
752;DHT22;360;48.764;9.164;2023-03-04T09:55:41;3.40;99.90
752;DHT22;360;48.764;9.164;2023-03-04T09:58:19;3.50;99.90
752;DHT22;360;48.764;9.164;2023-03-04T10:00:54;3.80;99.90
752;DHT22;360;48.764;9.164;2023-03-04T10:03:24;4.00;99.90
752;DHT22;360;48.764;9.164;2023-03-04T10:05:54;4.10;1.00
752;DHT22;360;48.764;9.164;2023-03-04T10:08:37;4.20;1.00
752;DHT22;360;48.764;9.164;2023-03-04T10:11:10;3.90;1.00
752;DHT22;360;48.764;9.164;2023-03-04T10:33:42;4.20;1.00
752;DHT22;360;48.764;9.164;2023-03-04T10:36:26;3.90;1.00
752;DHT22;360;48.764;9.164;2023-03-04T10:39:01;4.10;1.00
752;DHT22;360;48.764;9.164;2023-03-04T10:41:29;4.30;1.00
752;DHT22;360;48.764;9.164;2023-03-04T10:44:01;4.40;99.90
752;DHT22;360;48.764;9.164;2023-03-04T11:02:19;4.10;1.00
752;DHT22;360;48.764;9.164;2023-03-04T11:04:51;4.30;99.90
752;DHT22;360;48.764;9.164;2023-03-04T11:07:19;4.60;99.90
752;DHT22;360;48.764;9.164;2023-03-04T11:09:46;4.70;99.90
752;DHT22;360;48.764;9.164;2023-03-04T11:12:16;4.30;99.90
752;DHT22;360;48.764;9.164;2023-03-04T11:14:46;4.30;99.90
752;DHT22;360;48.764;9.164;2023-03-04T11:17:21;4.20;99.90
752;DHT22;360;48.764;9.164;2023-03-04T11:19:52;4.40;99.90
752;DHT22;360;48.764;9.164;2023-03-04T11:22:22;4.20;99.90
752;DHT22;360;48.764;9.164;2023-03-04T11:24:56;4.40;99.90
752;DHT22;360;48.764;9.164;2023-03-04T11:27:39;4.40;99.90
752;DHT22;360;48.764;9.164;2023-03-04T11:30:26;4.60;99.90
752;DHT22;360;48.764;9.164;2023-03-04T11:33:03;4.90;99.90
752;DHT22;360;48.764;9.164;2023-03-04T11:35:35;4.90;99.90
752;DHT22;360;48.764;9.164;2023-03-04T11:38:07;4.50;99.90
752;DHT22;360;48.764;9.164;2023-03-04T11:40:40;4.60;99.90
752;DHT22;360;48.764;9.164;2023-03-04T11:43:15;4.70;99.90
752;DHT22;360;48.764;9.164;2023-03-04T11:46:01;4.80;99.90
752;DHT22;360;48.764;9.164;2023-03-04T11:48:43;5.00;99.90
752;DHT22;360;48.764;9.164;2023-03-04T11:51:16;5.00;99.90
752;DHT22;360;48.764;9.164;2023-03-04T11:54:04;5.10;99.90
752;DHT22;360;48.764;9.164;2023-03-04T11:56:35;5.10;99.90
752;DHT22;360;48.764;9.164;2023-03-04T12:02:15;4.70;99.90
752;DHT22;360;48.764;9.164;2023-03-04T12:05:01;4.60;99.90
752;DHT22;360;48.764;9.164;2023-03-04T12:10:43;4.30;99.90
752;DHT22;360;48.764;9.164;2023-03-04T12:16:20;4.90;99.90
752;DHT22;360;48.764;9.164;2023-03-04T12:19:05;4.60;99.90
752;DHT22;360;48.764;9.164;2023-03-04T12:21:55;4.50;99.90
752;DHT22;360;48.764;9.164;2023-03-04T12:24:43;4.60;99.90
752;DHT22;360;48.764;9.164;2023-03-04T12:27:19;4.80;99.90
752;DHT22;360;48.764;9.164;2023-03-04T12:29:54;4.90;99.90
752;DHT22;360;48.764;9.164;2023-03-04T12:32:27;4.80;99.90
752;DHT22;360;48.764;9.164;2023-03-04T12:35:13;5.00;99.90
752;DHT22;360;48.764;9.164;2023-03-04T12:37:50;4.90;99.90
752;DHT22;360;48.764;9.164;2023-03-04T12:40:30;4.70;99.90
752;DHT22;360;48.764;9.164;2023-03-04T12:43:08;4.60;99.90
752;DHT22;360;48.764;9.164;2023-03-04T12:45:45;4.50;99.90
752;DHT22;360;48.764;9.164;2023-03-04T12:48:22;4.60;99.90
752;DHT22;360;48.764;9.164;2023-03-04T12:51:01;4.80;99.90
752;DHT22;360;48.764;9.164;2023-03-04T12:53:36;4.80;99.90
752;DHT22;360;48.764;9.164;2023-03-04T12:56:08;4.60;99.90
752;DHT22;360;48.764;9.164;2023-03-04T12:58:39;4.30;99.90
752;DHT22;360;48.764;9.164;2023-03-04T13:01:10;4.40;99.90
752;DHT22;360;48.764;9.164;2023-03-04T13:03:45;4.60;99.90
752;DHT22;360;48.764;9.164;2023-03-04T13:06:23;4.90;99.90
752;DHT22;360;48.764;9.164;2023-03-04T13:09:01;4.70;99.90
752;DHT22;360;48.764;9.164;2023-03-04T13:11:40;4.50;99.90
752;DHT22;360;48.764;9.164;2023-03-04T13:14:26;4.60;99.90
752;DHT22;360;48.764;9.164;2023-03-04T13:16:54;4.70;99.90
752;DHT22;360;48.764;9.164;2023-03-04T13:19:50;4.70;99.90
752;DHT22;360;48.764;9.164;2023-03-04T13:22:52;4.60;99.90
752;DHT22;360;48.764;9.164;2023-03-04T13:25:36;4.60;99.90
752;DHT22;360;48.764;9.164;2023-03-04T13:28:25;4.70;99.90
752;DHT22;360;48.764;9.164;2023-03-04T13:34:02;4.40;99.90
752;DHT22;360;48.764;9.164;2023-03-04T13:39:34;4.50;99.90
752;DHT22;360;48.764;9.164;2023-03-04T13:42:04;4.80;99.90
752;DHT22;360;48.764;9.164;2023-03-04T13:44:59;4.70;99.90
752;DHT22;360;48.764;9.164;2023-03-04T13:47:44;4.80;99.90
752;DHT22;360;48.764;9.164;2023-03-04T13:50:37;4.70;99.90
752;DHT22;360;48.764;9.164;2023-03-04T13:53:34;4.70;99.90
752;DHT22;360;48.764;9.164;2023-03-04T14:01:58;4.30;99.90
752;DHT22;360;48.764;9.164;2023-03-04T14:04:28;4.50;99.90
752;DHT22;360;48.764;9.164;2023-03-04T14:06:57;4.60;99.90
752;DHT22;360;48.764;9.164;2023-03-04T14:09:26;4.20;99.90
752;DHT22;360;48.764;9.164;2023-03-04T14:11:56;4.10;99.90
752;DHT22;360;48.764;9.164;2023-03-04T14:14:26;4.10;99.90
752;DHT22;360;48.764;9.164;2023-03-04T14:16:56;4.20;99.90
752;DHT22;360;48.764;9.164;2023-03-04T14:19:26;4.50;99.90
752;DHT22;360;48.764;9.164;2023-03-04T14:21:53;4.60;99.90
752;DHT22;360;48.764;9.164;2023-03-04T14:24:22;4.50;99.90
752;DHT22;360;48.764;9.164;2023-03-04T14:26:49;4.30;99.90
752;DHT22;360;48.764;9.164;2023-03-04T14:29:23;4.50;99.90
752;DHT22;360;48.764;9.164;2023-03-04T14:31:50;4.50;99.90
752;DHT22;360;48.764;9.164;2023-03-04T14:34:25;4.50;99.90
752;DHT22;360;48.764;9.164;2023-03-04T14:36:54;4.40;99.90
752;DHT22;360;48.764;9.164;2023-03-04T14:39:23;4.30;99.90
752;DHT22;360;48.764;9.164;2023-03-04T14:41:52;4.10;99.90
752;DHT22;360;48.764;9.164;2023-03-04T14:44:28;4.40;99.90
752;DHT22;360;48.764;9.164;2023-03-04T14:47:06;4.60;99.90
752;DHT22;360;48.764;9.164;2023-03-04T14:49:35;4.30;99.90
752;DHT22;360;48.764;9.164;2023-03-04T14:52:03;4.20;99.90
752;DHT22;360;48.764;9.164;2023-03-04T14:54:33;4.30;99.90
752;DHT22;360;48.764;9.164;2023-03-04T14:57:19;4.20;99.90
752;DHT22;360;48.764;9.164;2023-03-04T14:59:48;4.20;99.90
752;DHT22;360;48.764;9.164;2023-03-04T15:02:20;4.50;99.90
752;DHT22;360;48.764;9.164;2023-03-04T15:04:54;4.20;99.90
752;DHT22;360;48.764;9.164;2023-03-04T15:07:29;4.30;99.90
752;DHT22;360;48.764;9.164;2023-03-04T15:09:56;4.20;99.90
752;DHT22;360;48.764;9.164;2023-03-04T15:12:26;4.40;99.90
752;DHT22;360;48.764;9.164;2023-03-04T15:14:56;4.20;99.90
752;DHT22;360;48.764;9.164;2023-03-04T15:17:27;4.30;99.90
752;DHT22;360;48.764;9.164;2023-03-04T15:22:59;4.50;99.90
752;DHT22;360;48.764;9.164;2023-03-04T15:25:27;4.60;99.90
752;DHT22;360;48.764;9.164;2023-03-04T15:27:54;4.60;99.90
752;DHT22;360;48.764;9.164;2023-03-04T15:30:24;4.50;99.90
752;DHT22;360;48.764;9.164;2023-03-04T15:32:53;4.40;99.90
752;DHT22;360;48.764;9.164;2023-03-04T15:35:20;4.40;99.90
752;DHT22;360;48.764;9.164;2023-03-04T15:37:49;4.70;1.00
752;DHT22;360;48.764;9.164;2023-03-04T15:40:24;4.80;99.90
752;DHT22;360;48.764;9.164;2023-03-04T15:42:51;4.80;99.90
752;DHT22;360;48.764;9.164;2023-03-04T15:45:21;4.50;99.90
752;DHT22;360;48.764;9.164;2023-03-04T15:47:50;4.50;99.90
752;DHT22;360;48.764;9.164;2023-03-04T15:50:18;4.50;99.90
752;DHT22;360;48.764;9.164;2023-03-04T15:52:45;4.20;99.90
752;DHT22;360;48.764;9.164;2023-03-04T15:55:14;4.40;99.90
752;DHT22;360;48.764;9.164;2023-03-04T15:57:42;4.60;99.90
752;DHT22;360;48.764;9.164;2023-03-04T16:00:11;4.60;99.90
752;DHT22;360;48.764;9.164;2023-03-04T16:02:38;4.30;99.90
752;DHT22;360;48.764;9.164;2023-03-04T16:05:07;4.30;1.00
752;DHT22;360;48.764;9.164;2023-03-04T16:07:35;4.40;1.00
752;DHT22;360;48.764;9.164;2023-03-04T16:10:06;4.50;99.90
752;DHT22;360;48.764;9.164;2023-03-04T16:12:34;4.50;99.90
752;DHT22;360;48.764;9.164;2023-03-04T16:15:01;4.50;99.90
752;DHT22;360;48.764;9.164;2023-03-04T16:17:27;4.30;1.00
752;DHT22;360;48.764;9.164;2023-03-04T16:19:54;4.40;1.00
752;DHT22;360;48.764;9.164;2023-03-04T16:22:25;4.50;99.90
752;DHT22;360;48.764;9.164;2023-03-04T16:24:54;4.50;99.90
752;DHT22;360;48.764;9.164;2023-03-04T16:27:21;4.60;99.90
752;DHT22;360;48.764;9.164;2023-03-04T16:29:50;4.60;99.90
752;DHT22;360;48.764;9.164;2023-03-04T16:32:17;4.60;99.90
752;DHT22;360;48.764;9.164;2023-03-04T16:34:44;4.40;99.90
752;DHT22;360;48.764;9.164;2023-03-04T16:37:14;4.50;1.00
752;DHT22;360;48.764;9.164;2023-03-04T16:39:44;4.60;1.00
752;DHT22;360;48.764;9.164;2023-03-04T16:42:13;4.70;99.90
752;DHT22;360;48.764;9.164;2023-03-04T16:44:41;4.60;1.00
752;DHT22;360;48.764;9.164;2023-03-04T16:47:08;4.60;99.90
752;DHT22;360;48.764;9.164;2023-03-04T16:49:35;4.50;1.00
752;DHT22;360;48.764;9.164;2023-03-04T16:52:01;4.20;1.00
752;DHT22;360;48.764;9.164;2023-03-04T16:54:32;4.20;1.00
752;DHT22;360;48.764;9.164;2023-03-04T16:57:01;4.30;1.00
752;DHT22;360;48.764;9.164;2023-03-04T16:59:28;4.10;1.00
752;DHT22;360;48.764;9.164;2023-03-04T17:01:54;4.50;1.00
752;DHT22;360;48.764;9.164;2023-03-04T17:04:22;4.40;1.00
752;DHT22;360;48.764;9.164;2023-03-04T17:06:49;4.30;1.00
752;DHT22;360;48.764;9.164;2023-03-04T17:09:16;4.30;1.00
752;DHT22;360;48.764;9.164;2023-03-04T17:11:43;4.40;1.00
752;DHT22;360;48.764;9.164;2023-03-04T17:14:12;4.30;1.00
752;DHT22;360;48.764;9.164;2023-03-04T17:16:38;4.40;1.00
752;DHT22;360;48.764;9.164;2023-03-04T17:19:05;4.50;1.00
752;DHT22;360;48.764;9.164;2023-03-04T17:21:32;4.50;1.00
752;DHT22;360;48.764;9.164;2023-03-04T17:23:59;4.40;1.00
752;DHT22;360;48.764;9.164;2023-03-04T17:26:27;4.50;1.00
752;DHT22;360;48.764;9.164;2023-03-04T17:28:54;4.60;1.00
752;DHT22;360;48.764;9.164;2023-03-04T17:31:22;4.40;1.00
752;DHT22;360;48.764;9.164;2023-03-04T17:33:49;4.40;1.00
752;DHT22;360;48.764;9.164;2023-03-04T17:36:17;4.40;1.00
752;DHT22;360;48.764;9.164;2023-03-04T17:38:45;4.50;1.00
752;DHT22;360;48.764;9.164;2023-03-04T17:41:13;4.50;1.00
752;DHT22;360;48.764;9.164;2023-03-04T17:43:43;4.30;1.00
752;DHT22;360;48.764;9.164;2023-03-04T17:46:11;4.20;1.00
752;DHT22;360;48.764;9.164;2023-03-04T17:48:40;4.30;1.00
752;DHT22;360;48.764;9.164;2023-03-04T17:51:07;4.30;1.00
752;DHT22;360;48.764;9.164;2023-03-04T17:53:35;4.50;1.00
752;DHT22;360;48.764;9.164;2023-03-04T17:56:04;4.40;1.00
752;DHT22;360;48.764;9.164;2023-03-04T17:58:32;4.50;1.00
752;DHT22;360;48.764;9.164;2023-03-04T18:01:01;4.40;1.00
752;DHT22;360;48.764;9.164;2023-03-04T18:03:28;4.50;1.00
752;DHT22;360;48.764;9.164;2023-03-04T18:05:56;4.50;1.00
752;DHT22;360;48.764;9.164;2023-03-04T18:08:23;4.50;1.00
752;DHT22;360;48.764;9.164;2023-03-04T18:10:50;4.40;1.00
752;DHT22;360;48.764;9.164;2023-03-04T18:13:17;4.60;1.00
752;DHT22;360;48.764;9.164;2023-03-04T18:15:45;4.50;1.00
752;DHT22;360;48.764;9.164;2023-03-04T18:18:12;4.40;1.00
752;DHT22;360;48.764;9.164;2023-03-04T18:20:38;4.30;1.00
752;DHT22;360;48.764;9.164;2023-03-04T18:23:07;4.20;1.00
752;DHT22;360;48.764;9.164;2023-03-04T18:25:34;4.50;1.00
752;DHT22;360;48.764;9.164;2023-03-04T18:28:01;4.40;1.00
752;DHT22;360;48.764;9.164;2023-03-04T18:30:29;4.70;1.00
752;DHT22;360;48.764;9.164;2023-03-04T18:32:56;4.60;1.00
752;DHT22;360;48.764;9.164;2023-03-04T18:35:24;4.50;1.00
752;DHT22;360;48.764;9.164;2023-03-04T18:37:51;4.40;1.00
752;DHT22;360;48.764;9.164;2023-03-04T18:40:20;4.70;1.00
752;DHT22;360;48.764;9.164;2023-03-04T18:42:46;4.70;1.00
752;DHT22;360;48.764;9.164;2023-03-04T18:45:14;4.60;1.00
752;DHT22;360;48.764;9.164;2023-03-04T18:47:44;4.70;1.00
752;DHT22;360;48.764;9.164;2023-03-04T18:50:12;4.50;1.00
752;DHT22;360;48.764;9.164;2023-03-04T18:52:39;4.50;1.00
752;DHT22;360;48.764;9.164;2023-03-04T18:55:06;4.50;1.00
752;DHT22;360;48.764;9.164;2023-03-04T18:57:36;4.50;1.00
752;DHT22;360;48.764;9.164;2023-03-04T19:00:05;4.70;1.00
752;DHT22;360;48.764;9.164;2023-03-04T19:02:35;4.60;1.00
752;DHT22;360;48.764;9.164;2023-03-04T19:05:05;4.70;1.00
752;DHT22;360;48.764;9.164;2023-03-04T19:07:32;4.80;1.00
752;DHT22;360;48.764;9.164;2023-03-04T19:09:59;4.80;1.00
752;DHT22;360;48.764;9.164;2023-03-04T19:12:26;4.80;1.00
752;DHT22;360;48.764;9.164;2023-03-04T19:14:54;4.70;1.00
752;DHT22;360;48.764;9.164;2023-03-04T19:17:21;4.70;1.00
752;DHT22;360;48.764;9.164;2023-03-04T19:19:50;4.70;1.00
752;DHT22;360;48.764;9.164;2023-03-04T19:22:16;4.70;1.00
752;DHT22;360;48.764;9.164;2023-03-04T19:24:43;4.60;1.00
752;DHT22;360;48.764;9.164;2023-03-04T19:27:10;4.70;1.00
752;DHT22;360;48.764;9.164;2023-03-04T19:29:37;4.60;1.00
752;DHT22;360;48.764;9.164;2023-03-04T19:32:05;4.60;1.00
752;DHT22;360;48.764;9.164;2023-03-04T19:34:32;4.50;1.00
752;DHT22;360;48.764;9.164;2023-03-04T19:36:59;4.40;1.00
752;DHT22;360;48.764;9.164;2023-03-04T19:39:26;4.50;1.00
752;DHT22;360;48.764;9.164;2023-03-04T19:41:52;4.40;1.00
752;DHT22;360;48.764;9.164;2023-03-04T19:44:19;4.50;1.00
752;DHT22;360;48.764;9.164;2023-03-04T19:46:46;4.40;1.00
752;DHT22;360;48.764;9.164;2023-03-04T19:49:14;4.60;1.00
752;DHT22;360;48.764;9.164;2023-03-04T19:51:41;4.50;1.00
752;DHT22;360;48.764;9.164;2023-03-04T19:54:08;4.50;1.00
752;DHT22;360;48.764;9.164;2023-03-04T19:56:35;4.40;1.00
752;DHT22;360;48.764;9.164;2023-03-04T19:59:02;4.40;1.00
752;DHT22;360;48.764;9.164;2023-03-04T20:01:30;4.40;1.00
752;DHT22;360;48.764;9.164;2023-03-04T20:04:00;4.20;1.00
752;DHT22;360;48.764;9.164;2023-03-04T20:06:29;4.30;1.00
752;DHT22;360;48.764;9.164;2023-03-04T20:08:57;4.30;1.00
752;DHT22;360;48.764;9.164;2023-03-04T20:11:24;4.30;1.00
752;DHT22;360;48.764;9.164;2023-03-04T20:13:51;4.30;1.00
752;DHT22;360;48.764;9.164;2023-03-04T20:16:18;4.50;1.00
752;DHT22;360;48.764;9.164;2023-03-04T20:18:45;4.60;1.00
752;DHT22;360;48.764;9.164;2023-03-04T20:21:12;4.50;1.00
752;DHT22;360;48.764;9.164;2023-03-04T20:23:40;4.60;1.00
752;DHT22;360;48.764;9.164;2023-03-04T20:26:07;4.40;1.00
752;DHT22;360;48.764;9.164;2023-03-04T20:28:35;4.40;1.00
752;DHT22;360;48.764;9.164;2023-03-04T20:31:09;4.40;1.00
752;DHT22;360;48.764;9.164;2023-03-04T20:33:37;4.40;1.00
752;DHT22;360;48.764;9.164;2023-03-04T20:36:04;4.30;1.00
752;DHT22;360;48.764;9.164;2023-03-04T20:38:31;4.30;1.00
752;DHT22;360;48.764;9.164;2023-03-04T20:40:59;4.30;1.00
752;DHT22;360;48.764;9.164;2023-03-04T20:43:26;4.40;1.00
752;DHT22;360;48.764;9.164;2023-03-04T20:45:54;4.50;1.00
752;DHT22;360;48.764;9.164;2023-03-04T20:48:20;4.50;1.00
752;DHT22;360;48.764;9.164;2023-03-04T20:50:47;4.40;1.00
752;DHT22;360;48.764;9.164;2023-03-04T20:53:14;4.50;1.00
752;DHT22;360;48.764;9.164;2023-03-04T20:55:41;4.40;1.00
752;DHT22;360;48.764;9.164;2023-03-04T20:58:09;4.50;1.00
752;DHT22;360;48.764;9.164;2023-03-04T21:00:36;4.50;1.00
752;DHT22;360;48.764;9.164;2023-03-04T21:03:03;4.60;1.00
752;DHT22;360;48.764;9.164;2023-03-04T21:05:30;4.60;1.00
752;DHT22;360;48.764;9.164;2023-03-04T21:07:57;4.60;1.00
